sensor_id;sensor_type;location;lat;lon;timestamp;noise_LAeq;noise_LA_min;noise_LA_max;noise_LA01;noise_LA95
43787;Laerm;29409;49.306;8.500;2023-10-19T00:01:00;40.68;38.37;50.02;;
43787;Laerm;29409;49.306;8.500;2023-10-19T00:02:00;40.97;38.81;48.21;;
43787;Laerm;29409;49.306;8.500;2023-10-19T00:03:01;41.45;39.08;50.34;;
43787;Laerm;29409;49.306;8.500;2023-10-19T00:04:02;41.35;39.08;51.28;;
43787;Laerm;29409;49.306;8.500;2023-10-19T00:05:03;40.80;38.37;49.60;;
43787;Laerm;29409;49.306;8.500;2023-10-19T00:06:04;41.31;38.52;52.33;;
43787;Laerm;29409;49.306;8.500;2023-10-19T00:07:05;40.98;38.18;53.46;;
43787;Laerm;29409;49.306;8.500;2023-10-19T00:08:07;41.08;38.05;54.65;;
43787;Laerm;29409;49.306;8.500;2023-10-19T00:09:14;41.55;38.67;53.19;;
43787;Laerm;29409;49.306;8.500;2023-10-19T00:10:15;40.82;38.05;52.77;;
43787;Laerm;29409;49.306;8.500;2023-10-19T00:11:16;40.36;37.52;48.94;;
43787;Laerm;29409;49.306;8.500;2023-10-19T00:12:24;41.33;38.52;52.28;;
43787;Laerm;29409;49.306;8.500;2023-10-19T00:13:24;41.68;38.05;58.34;;
43787;Laerm;29409;49.306;8.500;2023-10-19T00:14:25;41.24;37.52;50.87;;
43787;Laerm;29409;49.306;8.500;2023-10-19T00:15:26;44.25;38.81;68.79;;
43787;Laerm;29409;49.306;8.500;2023-10-19T00:16:31;42.03;38.95;53.42;;
43787;Laerm;29409;49.306;8.500;2023-10-19T00:17:43;42.27;39.08;53.34;;
43787;Laerm;29409;49.306;8.500;2023-10-19T00:18:45;41.68;39.34;52.08;;
43787;Laerm;29409;49.306;8.500;2023-10-19T00:19:48;41.53;38.67;51.39;;
43787;Laerm;29409;49.306;8.500;2023-10-19T00:21:06;41.00;38.37;54.02;;
43787;Laerm;29409;49.306;8.500;2023-10-19T00:22:20;41.85;39.08;54.29;;
43787;Laerm;29409;49.306;8.500;2023-10-19T00:23:21;41.95;38.52;57.76;;
43787;Laerm;29409;49.306;8.500;2023-10-19T00:24:45;42.04;38.81;53.21;;
43787;Laerm;29409;49.306;8.500;2023-10-19T00:25:45;41.45;38.21;56.72;;
43787;Laerm;29409;49.306;8.500;2023-10-19T00:26:50;40.13;37.52;49.33;;
43787;Laerm;29409;49.306;8.500;2023-10-19T00:27:55;39.79;36.91;51.17;;
43787;Laerm;29409;49.306;8.500;2023-10-19T00:28:55;40.08;36.91;52.67;;
43787;Laerm;29409;49.306;8.500;2023-10-19T00:29:58;40.01;36.98;48.43;;
43787;Laerm;29409;49.306;8.500;2023-10-19T00:31:06;39.52;36.91;47.46;;
43787;Laerm;29409;49.306;8.500;2023-10-19T00:32:11;39.75;37.12;46.87;;
43787;Laerm;29409;49.306;8.500;2023-10-19T00:33:15;39.52;36.91;49.75;;
43787;Laerm;29409;49.306;8.500;2023-10-19T00:34:20;39.33;36.45;51.70;;
43787;Laerm;29409;49.306;8.500;2023-10-19T00:35:21;39.27;36.34;44.94;;
43787;Laerm;29409;49.306;8.500;2023-10-19T00:36:27;40.19;37.12;44.35;;
43787;Laerm;29409;49.306;8.500;2023-10-19T00:37:31;39.28;36.45;46.64;;
43787;Laerm;29409;49.306;8.500;2023-10-19T00:38:32;39.23;36.69;43.54;;
43787;Laerm;29409;49.306;8.500;2023-10-19T00:39:39;39.44;36.45;48.94;;
43787;Laerm;29409;49.306;8.500;2023-10-19T00:41:07;39.77;36.91;43.14;;
43787;Laerm;29409;49.306;8.500;2023-10-19T00:42:10;39.55;35.94;43.86;;
43787;Laerm;29409;49.306;8.500;2023-10-19T00:43:11;39.84;37.32;42.47;;
43787;Laerm;29409;49.306;8.500;2023-10-19T00:44:12;39.80;37.32;42.22;;
43787;Laerm;29409;49.306;8.500;2023-10-19T00:45:12;41.07;37.32;64.45;;
43787;Laerm;29409;49.306;8.500;2023-10-19T00:46:14;40.25;36.20;49.19;;
43787;Laerm;29409;49.306;8.500;2023-10-19T00:47:20;40.39;37.70;52.23;;
43787;Laerm;29409;49.306;8.500;2023-10-19T00:48:24;41.76;38.52;50.17;;
43787;Laerm;29409;49.306;8.500;2023-10-19T00:49:26;41.34;37.88;50.17;;
43787;Laerm;29409;49.306;8.500;2023-10-19T00:50:26;40.53;37.32;50.76;;
43787;Laerm;29409;49.306;8.500;2023-10-19T00:51:43;40.73;37.32;53.41;;
43787;Laerm;29409;49.306;8.500;2023-10-19T00:52:53;39.70;36.69;44.45;;
43787;Laerm;29409;49.306;8.500;2023-10-19T00:53:56;39.63;36.69;47.90;;
43787;Laerm;29409;49.306;8.500;2023-10-19T00:54:58;39.56;36.91;47.88;;
43787;Laerm;29409;49.306;8.500;2023-10-19T00:55:59;40.78;37.52;44.76;;
43787;Laerm;29409;49.306;8.500;2023-10-19T00:57:01;39.85;37.32;50.33;;
43787;Laerm;29409;49.306;8.500;2023-10-19T00:58:10;41.64;38.21;57.99;;
43787;Laerm;29409;49.306;8.500;2023-10-19T00:59:10;42.31;39.21;56.48;;
43787;Laerm;29409;49.306;8.500;2023-10-19T01:00:14;42.04;39.81;55.51;;
43787;Laerm;29409;49.306;8.500;2023-10-19T01:01:41;42.34;38.52;61.00;;
43787;Laerm;29409;49.306;8.500;2023-10-19T01:02:45;40.27;37.12;51.04;;
43787;Laerm;29409;49.306;8.500;2023-10-19T01:03:51;39.91;37.12;49.95;;
43787;Laerm;29409;49.306;8.500;2023-10-19T01:04:56;40.34;37.88;50.17;;
43787;Laerm;29409;49.306;8.500;2023-10-19T01:06:00;40.52;37.70;51.63;;
43787;Laerm;29409;49.306;8.500;2023-10-19T01:07:00;40.29;37.12;55.53;;
43787;Laerm;29409;49.306;8.500;2023-10-19T01:08:15;42.13;38.21;69.16;;
43787;Laerm;29409;49.306;8.500;2023-10-19T01:09:31;40.74;37.32;56.59;;
43787;Laerm;29409;49.306;8.500;2023-10-19T01:10:40;41.10;37.52;53.87;;
43787;Laerm;29409;49.306;8.500;2023-10-19T01:11:42;40.54;37.70;50.69;;
43787;Laerm;29409;49.306;8.500;2023-10-19T01:12:45;40.37;37.12;46.62;;
43787;Laerm;29409;49.306;8.500;2023-10-19T01:13:46;40.87;38.21;47.72;;
43787;Laerm;29409;49.306;8.500;2023-10-19T01:16:14;40.84;38.37;46.38;;
43787;Laerm;29409;49.306;8.500;2023-10-19T01:17:20;40.98;38.05;50.40;;
43787;Laerm;29409;49.306;8.500;2023-10-19T01:18:20;41.98;39.92;50.48;;
43787;Laerm;29409;49.306;8.500;2023-10-19T01:19:24;41.30;38.37;50.25;;
43787;Laerm;29409;49.306;8.500;2023-10-19T01:20:28;40.01;37.12;53.02;;
43787;Laerm;29409;49.306;8.500;2023-10-19T01:21:28;39.68;36.69;49.41;;
43787;Laerm;29409;49.306;8.500;2023-10-19T01:22:37;39.75;35.94;44.31;;
43787;Laerm;29409;49.306;8.500;2023-10-19T01:23:44;40.18;36.69;44.73;;
43787;Laerm;29409;49.306;8.500;2023-10-19T01:24:45;40.06;35.86;52.16;;
43787;Laerm;29409;49.306;8.500;2023-10-19T01:25:47;39.82;36.69;45.54;;
43787;Laerm;29409;49.306;8.500;2023-10-19T01:26:56;40.87;36.91;49.33;;
43787;Laerm;29409;49.306;8.500;2023-10-19T01:27:57;39.56;36.20;41.75;;
43787;Laerm;29409;49.306;8.500;2023-10-19T01:28:57;39.44;36.20;42.22;;
43787;Laerm;29409;49.306;8.500;2023-10-19T01:30:00;42.67;37.12;52.31;;
43787;Laerm;29409;49.306;8.500;2023-10-19T01:31:03;40.55;37.52;44.39;;
43787;Laerm;29409;49.306;8.500;2023-10-19T01:32:07;45.50;37.12;60.18;;
43787;Laerm;29409;49.306;8.500;2023-10-19T01:33:11;39.60;35.04;41.68;;
43787;Laerm;29409;49.306;8.500;2023-10-19T01:34:23;39.79;36.91;47.54;;
43787;Laerm;29409;49.306;8.500;2023-10-19T01:35:26;40.27;36.69;45.51;;
43787;Laerm;29409;49.306;8.500;2023-10-19T01:36:27;39.47;36.69;41.68;;
43787;Laerm;29409;49.306;8.500;2023-10-19T01:37:27;39.51;36.45;41.48;;
43787;Laerm;29409;49.306;8.500;2023-10-19T01:38:28;39.71;36.69;42.47;;
43787;Laerm;29409;49.306;8.500;2023-10-19T01:39:31;40.09;36.91;42.29;;
43787;Laerm;29409;49.306;8.500;2023-10-19T01:40:32;39.74;36.45;43.09;;
43787;Laerm;29409;49.306;8.500;2023-10-19T01:41:46;39.50;35.94;41.82;;
43787;Laerm;29409;49.306;8.500;2023-10-19T01:42:46;40.20;37.32;43.19;;
43787;Laerm;29409;49.306;8.500;2023-10-19T01:43:47;40.39;37.12;44.15;;
43787;Laerm;29409;49.306;8.500;2023-10-19T01:44:50;39.61;36.91;42.03;;
43787;Laerm;29409;49.306;8.500;2023-10-19T01:45:53;39.63;36.91;41.68;;
43787;Laerm;29409;49.306;8.500;2023-10-19T01:46:55;39.40;36.69;42.03;;
43787;Laerm;29409;49.306;8.500;2023-10-19T01:47:55;39.78;36.45;54.61;;
43787;Laerm;29409;49.306;8.500;2023-10-19T01:48:56;39.22;36.10;41.53;;
43787;Laerm;29409;49.306;8.500;2023-10-19T01:49:56;39.22;36.10;41.61;;
43787;Laerm;29409;49.306;8.500;2023-10-19T01:50:56;39.22;35.04;41.53;;
43787;Laerm;29409;49.306;8.500;2023-10-19T01:51:57;39.31;36.45;41.46;;
43787;Laerm;29409;49.306;8.500;2023-10-19T01:52:57;39.61;35.04;42.47;;
43787;Laerm;29409;49.306;8.500;2023-10-19T01:53:59;39.45;35.94;41.38;;
43787;Laerm;29409;49.306;8.500;2023-10-19T01:55:00;39.64;36.69;42.16;;
43787;Laerm;29409;49.306;8.500;2023-10-19T01:56:07;39.51;36.45;43.44;;
43787;Laerm;29409;49.306;8.500;2023-10-19T01:57:09;39.83;35.94;43.81;;
43787;Laerm;29409;49.306;8.500;2023-10-19T01:58:10;39.60;35.36;45.91;;
43787;Laerm;29409;49.306;8.500;2023-10-19T01:59:10;39.44;36.91;41.75;;
43787;Laerm;29409;49.306;8.500;2023-10-19T02:00:11;39.25;36.45;41.38;;
43787;Laerm;29409;49.306;8.500;2023-10-19T02:01:17;39.44;36.91;41.61;;
43787;Laerm;29409;49.306;8.500;2023-10-19T02:02:21;39.82;35.94;41.82;;
43787;Laerm;29409;49.306;8.500;2023-10-19T02:03:22;40.12;37.12;42.88;;
43787;Laerm;29409;49.306;8.500;2023-10-19T02:04:23;40.16;36.69;44.31;;
43787;Laerm;29409;49.306;8.500;2023-10-19T02:05:24;39.65;36.91;42.09;;
43787;Laerm;29409;49.306;8.500;2023-10-19T02:08:03;39.97;36.45;42.29;;
43787;Laerm;29409;49.306;8.500;2023-10-19T02:09:10;39.84;36.69;42.71;;
43787;Laerm;29409;49.306;8.500;2023-10-19T02:10:17;40.05;37.12;42.47;;
43787;Laerm;29409;49.306;8.500;2023-10-19T02:11:22;40.02;37.12;42.35;;
43787;Laerm;29409;49.306;8.500;2023-10-19T02:12:22;40.57;37.70;43.54;;
43787;Laerm;29409;49.306;8.500;2023-10-19T02:13:23;40.70;38.05;43.54;;
43787;Laerm;29409;49.306;8.500;2023-10-19T02:14:24;39.82;36.91;42.03;;
43787;Laerm;29409;49.306;8.500;2023-10-19T02:15:25;39.94;36.91;42.59;;
43787;Laerm;29409;49.306;8.500;2023-10-19T02:16:26;39.98;36.45;42.98;;
43787;Laerm;29409;49.306;8.500;2023-10-19T02:17:29;39.75;36.91;42.16;;
43787;Laerm;29409;49.306;8.500;2023-10-19T02:18:31;40.13;36.91;45.77;;
43787;Laerm;29409;49.306;8.500;2023-10-19T02:19:50;39.57;36.45;41.89;;
43787;Laerm;29409;49.306;8.500;2023-10-19T02:20:50;40.84;37.52;45.01;;
43787;Laerm;29409;49.306;8.500;2023-10-19T02:21:54;39.73;36.69;44.80;;
43787;Laerm;29409;49.306;8.500;2023-10-19T02:22:57;39.60;35.66;41.82;;
43787;Laerm;29409;49.306;8.500;2023-10-19T02:23:58;39.91;36.91;42.13;;
43787;Laerm;29409;49.306;8.500;2023-10-19T02:24:58;41.56;37.32;49.44;;
43787;Laerm;29409;49.306;8.500;2023-10-19T02:25:58;40.02;36.91;41.96;;
43787;Laerm;29409;49.306;8.500;2023-10-19T02:26:58;39.86;37.12;41.96;;
43787;Laerm;29409;49.306;8.500;2023-10-19T02:28:00;40.17;37.12;42.41;;
43787;Laerm;29409;49.306;8.500;2023-10-19T02:29:00;40.18;37.12;42.35;;
43787;Laerm;29409;49.306;8.500;2023-10-19T02:30:01;39.84;36.91;41.96;;
43787;Laerm;29409;49.306;8.500;2023-10-19T02:31:02;39.91;36.69;41.82;;
43787;Laerm;29409;49.306;8.500;2023-10-19T02:32:15;40.72;36.91;43.44;;
43787;Laerm;29409;49.306;8.500;2023-10-19T02:33:18;39.80;37.17;41.89;;
43787;Laerm;29409;49.306;8.500;2023-10-19T02:34:20;40.33;37.12;43.09;;
43787;Laerm;29409;49.306;8.500;2023-10-19T02:35:20;40.36;36.91;44.90;;
43787;Laerm;29409;49.306;8.500;2023-10-19T02:36:20;39.57;36.69;41.75;;
43787;Laerm;29409;49.306;8.500;2023-10-19T02:37:21;39.77;37.12;42.16;;
43787;Laerm;29409;49.306;8.500;2023-10-19T02:38:21;39.72;37.12;44.94;;
43787;Laerm;29409;49.306;8.500;2023-10-19T02:39:22;40.24;36.45;43.90;;
43787;Laerm;29409;49.306;8.500;2023-10-19T02:40:28;39.83;36.91;42.09;;
43787;Laerm;29409;49.306;8.500;2023-10-19T02:41:31;40.33;35.94;42.47;;
43787;Laerm;29409;49.306;8.500;2023-10-19T02:42:44;40.45;36.69;43.49;;
43787;Laerm;29409;49.306;8.500;2023-10-19T02:43:56;41.38;37.70;48.49;;
43787;Laerm;29409;49.306;8.500;2023-10-19T02:45:25;41.17;37.70;44.54;;
43787;Laerm;29409;49.306;8.500;2023-10-19T02:46:31;40.32;36.91;42.47;;
43787;Laerm;29409;49.306;8.500;2023-10-19T02:47:45;41.03;38.18;43.99;;
43787;Laerm;29409;49.306;8.500;2023-10-19T02:48:46;41.04;37.12;47.67;;
43787;Laerm;29409;49.306;8.500;2023-10-19T02:49:49;41.57;38.21;47.30;;
43787;Laerm;29409;49.306;8.500;2023-10-19T02:50:55;41.21;38.05;53.72;;
43787;Laerm;29409;49.306;8.500;2023-10-19T02:51:58;41.64;37.70;45.17;;
43787;Laerm;29409;49.306;8.500;2023-10-19T02:53:07;40.83;38.05;52.78;;
43787;Laerm;29409;49.306;8.500;2023-10-19T02:54:07;41.11;38.21;49.03;;
43787;Laerm;29409;49.306;8.500;2023-10-19T02:55:09;40.90;37.70;51.47;;
43787;Laerm;29409;49.306;8.500;2023-10-19T02:56:13;41.36;38.05;48.45;;
43787;Laerm;29409;49.306;8.500;2023-10-19T02:57:15;40.90;37.88;45.33;;
43787;Laerm;29409;49.306;8.500;2023-10-19T02:58:15;41.45;38.05;44.31;;
43787;Laerm;29409;49.306;8.500;2023-10-19T02:59:16;41.52;38.95;45.60;;
43787;Laerm;29409;49.306;8.500;2023-10-19T03:00:16;41.03;38.37;43.39;;
43787;Laerm;29409;49.306;8.500;2023-10-19T03:01:20;40.85;38.05;42.88;;
43787;Laerm;29409;49.306;8.500;2023-10-19T03:02:29;41.24;37.88;48.85;;
43787;Laerm;29409;49.306;8.500;2023-10-19T03:03:30;41.42;38.95;49.92;;
43787;Laerm;29409;49.306;8.500;2023-10-19T03:04:32;41.40;39.21;43.04;;
43787;Laerm;29409;49.306;8.500;2023-10-19T03:05:55;41.72;38.95;47.63;;
43787;Laerm;29409;49.306;8.500;2023-10-19T03:06:56;41.93;38.67;45.75;;
43787;Laerm;29409;49.306;8.500;2023-10-19T03:07:56;43.26;39.21;48.64;;
43787;Laerm;29409;49.306;8.500;2023-10-19T03:08:57;42.29;39.34;44.83;;
43787;Laerm;29409;49.306;8.500;2023-10-19T03:10:26;42.47;39.34;47.95;;
43787;Laerm;29409;49.306;8.500;2023-10-19T03:11:43;42.15;39.46;44.65;;
43787;Laerm;29409;49.306;8.500;2023-10-19T03:12:47;41.94;39.34;44.11;;
43787;Laerm;29409;49.306;8.500;2023-10-19T03:13:47;41.14;38.37;43.68;;
43787;Laerm;29409;49.306;8.500;2023-10-19T03:14:50;41.40;37.88;49.63;;
43787;Laerm;29409;49.306;8.500;2023-10-19T03:15:50;40.90;38.21;46.71;;
43787;Laerm;29409;49.306;8.500;2023-10-19T03:16:53;43.58;38.81;49.95;;
43787;Laerm;29409;49.306;8.500;2023-10-19T03:17:57;42.52;39.58;46.50;;
43787;Laerm;29409;49.306;8.500;2023-10-19T03:18:58;42.45;39.34;45.94;;
43787;Laerm;29409;49.306;8.500;2023-10-19T03:19:58;41.32;38.67;43.29;;
43787;Laerm;29409;49.306;8.500;2023-10-19T03:21:00;41.48;38.81;47.98;;
43787;Laerm;29409;49.306;8.500;2023-10-19T03:22:00;44.84;39.92;53.48;;
43787;Laerm;29409;49.306;8.500;2023-10-19T03:23:00;43.53;39.08;51.11;;
43787;Laerm;29409;49.306;8.500;2023-10-19T03:24:02;48.96;38.67;61.80;;
43787;Laerm;29409;49.306;8.500;2023-10-19T03:25:12;41.97;38.81;46.50;;
43787;Laerm;29409;49.306;8.500;2023-10-19T03:26:31;41.52;38.37;45.51;;
43787;Laerm;29409;49.306;8.500;2023-10-19T03:27:39;42.54;38.67;50.33;;
43787;Laerm;29409;49.306;8.500;2023-10-19T03:28:42;42.40;38.37;50.34;;
43787;Laerm;29409;49.306;8.500;2023-10-19T03:29:46;42.33;38.95;51.99;;
43787;Laerm;29409;49.306;8.500;2023-10-19T03:30:51;42.65;38.81;47.14;;
43787;Laerm;29409;49.306;8.500;2023-10-19T03:31:51;43.12;39.08;50.56;;
43787;Laerm;29409;49.306;8.500;2023-10-19T03:32:52;42.87;38.67;51.53;;
43787;Laerm;29409;49.306;8.500;2023-10-19T03:33:53;41.82;38.95;46.50;;
43787;Laerm;29409;49.306;8.500;2023-10-19T03:34:59;42.38;38.95;49.10;;
43787;Laerm;29409;49.306;8.500;2023-10-19T03:35:59;42.17;39.46;48.41;;
43787;Laerm;29409;49.306;8.500;2023-10-19T03:37:00;41.41;38.95;45.89;;
43787;Laerm;29409;49.306;8.500;2023-10-19T03:38:07;49.16;39.58;60.00;;
43787;Laerm;29409;49.306;8.500;2023-10-19T03:39:18;42.31;39.08;48.78;;
43787;Laerm;29409;49.306;8.500;2023-10-19T03:40:21;42.12;39.08;48.18;;
43787;Laerm;29409;49.306;8.500;2023-10-19T03:41:30;42.65;39.58;51.29;;
43787;Laerm;29409;49.306;8.500;2023-10-19T03:42:43;41.98;38.21;47.54;;
43787;Laerm;29409;49.306;8.500;2023-10-19T03:43:54;41.67;39.21;43.86;;
43787;Laerm;29409;49.306;8.500;2023-10-19T03:44:57;42.63;39.58;46.84;;
43787;Laerm;29409;49.306;8.500;2023-10-19T03:45:57;42.53;39.34;50.85;;
43787;Laerm;29409;49.306;8.500;2023-10-19T03:46:59;41.97;39.34;45.63;;
43787;Laerm;29409;49.306;8.500;2023-10-19T03:48:04;42.13;39.21;48.91;;
43787;Laerm;29409;49.306;8.500;2023-10-19T03:49:09;41.56;39.58;43.29;;
43787;Laerm;29409;49.306;8.500;2023-10-19T03:50:12;42.16;39.68;47.48;;
43787;Laerm;29409;49.306;8.500;2023-10-19T03:51:20;41.78;39.21;45.36;;
43787;Laerm;29409;49.306;8.500;2023-10-19T03:52:25;41.68;39.08;45.51;;
43787;Laerm;29409;49.306;8.500;2023-10-19T03:53:30;41.41;39.21;43.09;;
43787;Laerm;29409;49.306;8.500;2023-10-19T03:54:32;41.45;38.81;43.19;;
43787;Laerm;29409;49.306;8.500;2023-10-19T03:55:33;41.92;39.46;45.99;;
43787;Laerm;29409;49.306;8.500;2023-10-19T03:56:40;43.26;38.67;53.40;;
43787;Laerm;29409;49.306;8.500;2023-10-19T03:57:41;41.52;39.58;43.19;;
43787;Laerm;29409;49.306;8.500;2023-10-19T03:58:42;42.01;38.95;47.20;;
43787;Laerm;29409;49.306;8.500;2023-10-19T03:59:47;41.67;39.21;52.76;;
43787;Laerm;29409;49.306;8.500;2023-10-19T04:00:50;42.38;38.67;47.08;;
43787;Laerm;29409;49.306;8.500;2023-10-19T04:01:51;42.71;39.81;45.83;;
43787;Laerm;29409;49.306;8.500;2023-10-19T04:02:51;43.32;40.43;48.63;;
43787;Laerm;29409;49.306;8.500;2023-10-19T04:03:53;43.26;40.89;47.08;;
43787;Laerm;29409;49.306;8.500;2023-10-19T04:04:55;43.98;40.89;50.43;;
43787;Laerm;29409;49.306;8.500;2023-10-19T04:05:57;42.64;39.70;47.40;;
43787;Laerm;29409;49.306;8.500;2023-10-19T04:07:01;42.39;40.03;49.46;;
43787;Laerm;29409;49.306;8.500;2023-10-19T04:08:10;41.87;39.70;44.90;;
43787;Laerm;29409;49.306;8.500;2023-10-19T04:09:18;42.36;39.46;47.38;;
43787;Laerm;29409;49.306;8.500;2023-10-19T04:10:19;42.15;39.78;44.83;;
43787;Laerm;29409;49.306;8.500;2023-10-19T04:11:57;42.23;39.70;49.52;;
43787;Laerm;29409;49.306;8.500;2023-10-19T04:12:58;43.28;40.13;52.19;;
43787;Laerm;29409;49.306;8.500;2023-10-19T04:14:01;42.97;40.33;49.40;;
43787;Laerm;29409;49.306;8.500;2023-10-19T04:15:06;43.69;40.23;52.11;;
43787;Laerm;29409;49.306;8.500;2023-10-19T04:16:16;45.89;39.92;54.05;;
43787;Laerm;29409;49.306;8.500;2023-10-19T04:17:16;42.91;40.13;50.16;;
43787;Laerm;29409;49.306;8.500;2023-10-19T04:18:21;43.14;40.62;47.18;;
43787;Laerm;29409;49.306;8.500;2023-10-19T04:19:22;42.21;40.13;44.07;;
43787;Laerm;29409;49.306;8.500;2023-10-19T04:20:22;42.70;39.46;49.32;;
43787;Laerm;29409;49.306;8.500;2023-10-19T04:21:26;42.08;39.70;44.19;;
43787;Laerm;29409;49.306;8.500;2023-10-19T04:22:26;43.11;40.13;47.32;;
43787;Laerm;29409;49.306;8.500;2023-10-19T04:23:27;42.94;40.13;46.23;;
43787;Laerm;29409;49.306;8.500;2023-10-19T04:24:27;43.41;40.23;48.28;;
43787;Laerm;29409;49.306;8.500;2023-10-19T04:25:27;43.94;40.89;55.16;;
43787;Laerm;29409;49.306;8.500;2023-10-19T04:26:29;42.99;40.27;47.30;;
43787;Laerm;29409;49.306;8.500;2023-10-19T04:27:49;42.25;39.92;46.78;;
43787;Laerm;29409;49.306;8.500;2023-10-19T04:28:51;42.47;39.92;44.62;;
43787;Laerm;29409;49.306;8.500;2023-10-19T04:29:51;43.51;40.53;51.08;;
43787;Laerm;29409;49.306;8.500;2023-10-19T04:30:52;42.74;39.34;47.02;;
43787;Laerm;29409;49.306;8.500;2023-10-19T04:31:52;42.37;40.23;46.62;;
43787;Laerm;29409;49.306;8.500;2023-10-19T04:32:55;43.08;39.34;49.55;;
43787;Laerm;29409;49.306;8.500;2023-10-19T04:33:57;46.24;40.62;55.23;;
43787;Laerm;29409;49.306;8.500;2023-10-19T04:34:57;42.68;39.92;46.35;;
43787;Laerm;29409;49.306;8.500;2023-10-19T04:35:58;43.32;40.53;48.52;;
43787;Laerm;29409;49.306;8.500;2023-10-19T04:37:00;43.29;40.62;47.68;;
43787;Laerm;29409;49.306;8.500;2023-10-19T04:38:06;43.52;41.30;48.48;;
43787;Laerm;29409;49.306;8.500;2023-10-19T04:39:06;46.71;41.14;54.74;;
43787;Laerm;29409;49.306;8.500;2023-10-19T04:40:11;43.20;40.23;48.08;;
43787;Laerm;29409;49.306;8.500;2023-10-19T04:41:12;43.91;40.23;48.09;;
43787;Laerm;29409;49.306;8.500;2023-10-19T04:42:12;43.32;40.71;47.50;;
43787;Laerm;29409;49.306;8.500;2023-10-19T04:43:12;42.96;40.13;46.91;;
43787;Laerm;29409;49.306;8.500;2023-10-19T04:44:13;43.50;40.71;49.14;;
43787;Laerm;29409;49.306;8.500;2023-10-19T04:45:13;42.70;40.13;49.27;;
43787;Laerm;29409;49.306;8.500;2023-10-19T04:46:13;43.59;41.06;48.43;;
43787;Laerm;29409;49.306;8.500;2023-10-19T04:47:14;47.94;41.68;61.69;;
43787;Laerm;29409;49.306;8.500;2023-10-19T04:48:14;44.28;40.62;49.94;;
43787;Laerm;29409;49.306;8.500;2023-10-19T04:49:14;43.51;40.53;47.54;;
43787;Laerm;29409;49.306;8.500;2023-10-19T04:50:16;43.51;39.46;51.82;;
43787;Laerm;29409;49.306;8.500;2023-10-19T04:51:16;42.79;39.92;46.93;;
43787;Laerm;29409;49.306;8.500;2023-10-19T04:52:17;42.46;39.68;47.26;;
43787;Laerm;29409;49.306;8.500;2023-10-19T04:53:17;42.81;40.23;46.15;;
43787;Laerm;29409;49.306;8.500;2023-10-19T04:54:17;43.22;40.53;48.43;;
43787;Laerm;29409;49.306;8.500;2023-10-19T04:55:18;43.83;40.98;51.41;;
43787;Laerm;29409;49.306;8.500;2023-10-19T04:56:18;42.65;40.23;48.49;;
43787;Laerm;29409;49.306;8.500;2023-10-19T04:57:19;42.89;40.23;49.45;;
43787;Laerm;29409;49.306;8.500;2023-10-19T04:58:20;43.60;40.71;46.73;;
43787;Laerm;29409;49.306;8.500;2023-10-19T04:59:21;47.38;40.80;61.67;;
43787;Laerm;29409;49.306;8.500;2023-10-19T05:00:22;45.31;41.30;56.92;;
43787;Laerm;29409;49.306;8.500;2023-10-19T05:01:24;44.22;41.61;49.41;;
43787;Laerm;29409;49.306;8.500;2023-10-19T05:02:24;43.42;40.13;46.97;;
43787;Laerm;29409;49.306;8.500;2023-10-19T05:03:27;47.30;40.62;62.51;;
43787;Laerm;29409;49.306;8.500;2023-10-19T05:04:29;43.28;40.89;47.61;;
43787;Laerm;29409;49.306;8.500;2023-10-19T05:05:29;44.74;41.61;50.34;;
43787;Laerm;29409;49.306;8.500;2023-10-19T05:06:30;43.65;40.53;52.53;;
43787;Laerm;29409;49.306;8.500;2023-10-19T05:07:30;44.20;41.14;53.99;;
43787;Laerm;29409;49.306;8.500;2023-10-19T05:08:30;43.63;40.89;48.67;;
43787;Laerm;29409;49.306;8.500;2023-10-19T05:09:32;46.88;41.61;54.51;;
43787;Laerm;29409;49.306;8.500;2023-10-19T05:10:45;43.75;41.06;48.57;;
43787;Laerm;29409;49.306;8.500;2023-10-19T05:11:48;45.38;42.09;51.76;;
43787;Laerm;29409;49.306;8.500;2023-10-19T05:12:49;45.15;42.29;53.68;;
43787;Laerm;29409;49.306;8.500;2023-10-19T05:13:52;43.67;41.38;50.57;;
43787;Laerm;29409;49.306;8.500;2023-10-19T05:14:55;43.39;39.58;47.70;;
43787;Laerm;29409;49.306;8.500;2023-10-19T05:15:55;43.60;40.33;50.20;;
43787;Laerm;29409;49.306;8.500;2023-10-19T05:16:56;43.82;40.33;49.04;;
43787;Laerm;29409;49.306;8.500;2023-10-19T05:18:00;45.84;41.46;71.07;;
43787;Laerm;29409;49.306;8.500;2023-10-19T05:19:06;48.29;41.46;69.97;;
43787;Laerm;29409;49.306;8.500;2023-10-19T05:20:06;47.24;41.53;62.50;;
43787;Laerm;29409;49.306;8.500;2023-10-19T05:21:07;45.56;41.11;58.53;;
43787;Laerm;29409;49.306;8.500;2023-10-19T05:22:08;44.30;41.22;49.19;;
43787;Laerm;29409;49.306;8.500;2023-10-19T05:23:10;45.04;41.06;52.56;;
43787;Laerm;29409;49.306;8.500;2023-10-19T05:24:20;44.23;41.14;49.29;;
43787;Laerm;29409;49.306;8.500;2023-10-19T05:25:20;43.31;40.53;47.24;;
43787;Laerm;29409;49.306;8.500;2023-10-19T05:26:23;47.74;41.38;61.76;;
43787;Laerm;29409;49.306;8.500;2023-10-19T05:27:23;46.67;41.53;58.94;;
43787;Laerm;29409;49.306;8.500;2023-10-19T05:28:24;43.41;40.53;48.96;;
43787;Laerm;29409;49.306;8.500;2023-10-19T05:29:25;43.18;40.89;47.32;;
43787;Laerm;29409;49.306;8.500;2023-10-19T05:30:25;43.19;40.03;50.26;;
43787;Laerm;29409;49.306;8.500;2023-10-19T05:31:26;47.20;40.53;60.22;;
43787;Laerm;29409;49.306;8.500;2023-10-19T05:32:28;47.89;41.22;66.47;;
43787;Laerm;29409;49.306;8.500;2023-10-19T05:33:30;43.83;40.62;49.30;;
43787;Laerm;29409;49.306;8.500;2023-10-19T05:34:30;44.10;41.03;50.66;;
43787;Laerm;29409;49.306;8.500;2023-10-19T05:35:32;45.69;41.53;54.45;;
43787;Laerm;29409;49.306;8.500;2023-10-19T05:36:57;43.55;40.71;48.36;;
43787;Laerm;29409;49.306;8.500;2023-10-19T05:38:02;43.12;40.71;48.80;;
43787;Laerm;29409;49.306;8.500;2023-10-19T05:39:03;44.09;41.22;48.61;;
43787;Laerm;29409;49.306;8.500;2023-10-19T05:40:08;43.93;41.38;51.89;;
43787;Laerm;29409;49.306;8.500;2023-10-19T05:41:12;44.55;41.06;49.23;;
43787;Laerm;29409;49.306;8.500;2023-10-19T05:42:14;44.27;40.53;50.37;;
43787;Laerm;29409;49.306;8.500;2023-10-19T05:43:14;44.11;40.71;49.56;;
43787;Laerm;29409;49.306;8.500;2023-10-19T05:44:20;46.67;41.14;58.53;;
43787;Laerm;29409;49.306;8.500;2023-10-19T05:45:23;43.99;40.98;49.11;;
43787;Laerm;29409;49.306;8.500;2023-10-19T05:46:26;43.90;41.22;55.16;;
43787;Laerm;29409;49.306;8.500;2023-10-19T05:47:31;43.78;41.14;49.79;;
43787;Laerm;29409;49.306;8.500;2023-10-19T05:48:32;47.18;41.75;55.65;;
43787;Laerm;29409;49.306;8.500;2023-10-19T05:49:32;47.67;41.22;70.61;;
43787;Laerm;29409;49.306;8.500;2023-10-19T05:50:41;44.18;41.38;52.66;;
43787;Laerm;29409;49.306;8.500;2023-10-19T05:51:46;46.43;40.98;54.27;;
43787;Laerm;29409;49.306;8.500;2023-10-19T05:52:46;43.53;40.33;62.42;;
43787;Laerm;29409;49.306;8.500;2023-10-19T05:53:51;47.26;41.68;60.05;;
43787;Laerm;29409;49.306;8.500;2023-10-19T05:54:51;43.98;41.22;50.81;;
43787;Laerm;29409;49.306;8.500;2023-10-19T05:55:53;49.89;41.46;67.05;;
43787;Laerm;29409;49.306;8.500;2023-10-19T05:56:54;46.36;42.16;60.42;;
43787;Laerm;29409;49.306;8.500;2023-10-19T05:57:54;47.36;41.06;61.73;;
43787;Laerm;29409;49.306;8.500;2023-10-19T05:58:55;44.70;42.09;51.80;;
43787;Laerm;29409;49.306;8.500;2023-10-19T05:59:56;44.79;41.06;53.80;;